Ne plus se rappeler de moi
Bonjour et Bienvenue
Pas de session ouverte
Jeudi 26/05/2016
d:\inetpub\wwwroot\acrroussillon\reservation\ACR\IMAGES\IMG1.JPGd:\inetpub\wwwroot\acrroussillon\reservation\ACR\IMAGES\IMG2.JPGd:\inetpub\wwwroot\acrroussillon\reservation\ACR/IMAGES/IMG3.jpg
00:00:00
Horaires du 26/05/2016 (Données à titre indicatif seulement).
Lever du soleil : 06h16 - Coucher du soleil : 21h15 (Heure Locale)
Jour aéronautique : 05h46 - Nuit aéronautique : 21h45 (Heure Locale)
Planning des réservations des aéronefs
Planning des réservations des aéronefs
2016/05/26 08:30
LFMP 260830Z AUTO 06009KT 9999 SCT015 BKN020 BKN027 18/13 Q1014 BECMG BKN008
Planning des réservations des aéronefs
2016/05/26 09:34
TAF LFMP 260800Z 2609/2709 08012KT CAVOK
TEMPO 2609/2612 BKN014
BECMG 2619/2621 VRB02KT
TEMPO 2622/2709 1200 BR OVC008 PROB40
TEMPO 2622/2706 0200 FG VV///
Informations sur les aéronefs
Informations sur les aéronefs
Modifications des Types de vols
ATTENTION PLUS DE PAIEMENT EN LIGNE DEPUIS LA MAISON
AEROCLUB DU ROUSSILLON. AVENUE MAURICE BELLONTE. 66000 PERPIGNAN. Tel : 04.68.73.48.18 Fax : 09.55.16.18.97 Courriel : aeroclub-roussillon@hotmail.fr
 METAR / TAF
LIENS UTILES
envoyer un e-mail
d:\inetpub\wwwroot\acrroussillon\reservation\ACR/IMAGES/Logo.jpg
Identifiez vous pour interaction
d:\inetpub\wwwroot\acrroussillon\reservation\ACR/IMAGES/Logo.jpg
Aéro-Club du Roussillon